Terminal Aerodrome Forecast
Issued by NWS

Home | Current Version | Previous Version | Text Only | Print | Product List | Glossary On
Versions: 1 2 3 4 5 6 7 8 9 10 11 12 13 14
000
FTUS43 KDTX 010535
TAFDET
TAF
KDET 010535Z 0106/0206 14006KT P6SM BKN040 OVC100
     FM010700 10004KT 3SM -SN BKN035 OVC050
     FM011000 VRB03KT 3SM -SN BKN025 OVC040
     FM011500 20003KT P6SM -SN BKN030 OVC060
     FM012000 23006KT 3SM -SN OVC025
     FM012300 25007KT P6SM BKN030 OVC100=

USA.gov is the U.S. government's official web portal to all federal, state and local government web resources and services.